sensor_id;sensor_type;location;lat;lon;timestamp;P1;durP1;ratioP1;P2;durP2;ratioP2
3949;SDS011;53057;50.988;6.314;2023-08-08T00:02:07;14.13;;;5.43;;
3949;SDS011;53057;50.988;6.314;2023-08-08T00:04:34;6.63;;;4.83;;
3949;SDS011;53057;50.988;6.314;2023-08-08T00:07:01;8.47;;;5.00;;
3949;SDS011;53057;50.988;6.314;2023-08-08T00:09:28;8.10;;;4.57;;
3949;SDS011;53057;50.988;6.314;2023-08-08T00:11:54;5.40;;;4.37;;
3949;SDS011;53057;50.988;6.314;2023-08-08T00:14:22;10.20;;;4.73;;
3949;SDS011;53057;50.988;6.314;2023-08-08T00:16:48;7.40;;;4.03;;
3949;SDS011;53057;50.988;6.314;2023-08-08T00:19:15;8.40;;;5.30;;
3949;SDS011;53057;50.988;6.314;2023-08-08T00:21:41;7.80;;;4.63;;
3949;SDS011;53057;50.988;6.314;2023-08-08T00:24:08;7.60;;;4.90;;
3949;SDS011;53057;50.988;6.314;2023-08-08T00:26:35;10.57;;;5.67;;
3949;SDS011;53057;50.988;6.314;2023-08-08T00:29:01;4.97;;;4.20;;
3949;SDS011;53057;50.988;6.314;2023-08-08T00:31:28;7.30;;;4.90;;
3949;SDS011;53057;50.988;6.314;2023-08-08T00:33:54;7.53;;;4.77;;
3949;SDS011;53057;50.988;6.314;2023-08-08T00:36:21;6.57;;;4.77;;
3949;SDS011;53057;50.988;6.314;2023-08-08T00:38:48;7.73;;;5.50;;
3949;SDS011;53057;50.988;6.314;2023-08-08T00:41:15;9.87;;;5.77;;
3949;SDS011;53057;50.988;6.314;2023-08-08T00:43:42;8.60;;;5.57;;
3949;SDS011;53057;50.988;6.314;2023-08-08T00:46:10;7.73;;;4.70;;
3949;SDS011;53057;50.988;6.314;2023-08-08T00:48:37;7.03;;;5.20;;
3949;SDS011;53057;50.988;6.314;2023-08-08T00:51:03;7.17;;;5.20;;
3949;SDS011;53057;50.988;6.314;2023-08-08T00:53:30;5.57;;;4.53;;
3949;SDS011;53057;50.988;6.314;2023-08-08T00:56:00;10.47;;;4.43;;
3949;SDS011;53057;50.988;6.314;2023-08-08T00:58:27;8.03;;;5.50;;
3949;SDS011;53057;50.988;6.314;2023-08-08T01:00:55;6.27;;;4.57;;
3949;SDS011;53057;50.988;6.314;2023-08-08T01:03:24;10.33;;;4.70;;
3949;SDS011;53057;50.988;6.314;2023-08-08T01:05:57;21.33;;;5.10;;
3949;SDS011;53057;50.988;6.314;2023-08-08T01:08:27;8.77;;;5.93;;
3949;SDS011;53057;50.988;6.314;2023-08-08T01:10:57;10.13;;;4.43;;
3949;SDS011;53057;50.988;6.314;2023-08-08T01:13:24;8.23;;;4.83;;
3949;SDS011;53057;50.988;6.314;2023-08-08T01:15:51;6.63;;;4.23;;
3949;SDS011;53057;50.988;6.314;2023-08-08T01:18:20;6.87;;;4.20;;
3949;SDS011;53057;50.988;6.314;2023-08-08T01:20:46;7.70;;;5.00;;
3949;SDS011;53057;50.988;6.314;2023-08-08T01:25:49;11.70;;;5.53;;
3949;SDS011;53057;50.988;6.314;2023-08-08T01:28:20;16.10;;;5.20;;
3949;SDS011;53057;50.988;6.314;2023-08-08T01:30:47;20.90;;;5.37;;
3949;SDS011;53057;50.988;6.314;2023-08-08T01:33:13;11.60;;;5.70;;
3949;SDS011;53057;50.988;6.314;2023-08-08T01:35:41;15.13;;;4.30;;
3949;SDS011;53057;50.988;6.314;2023-08-08T01:40:42;9.97;;;5.47;;
3949;SDS011;53057;50.988;6.314;2023-08-08T01:43:09;5.53;;;4.20;;
3949;SDS011;53057;50.988;6.314;2023-08-08T01:45:37;5.93;;;3.60;;
3949;SDS011;53057;50.988;6.314;2023-08-08T01:48:08;8.00;;;4.93;;
3949;SDS011;53057;50.988;6.314;2023-08-08T01:50:35;6.67;;;3.80;;
3949;SDS011;53057;50.988;6.314;2023-08-08T01:53:02;6.20;;;4.47;;
3949;SDS011;53057;50.988;6.314;2023-08-08T01:55:29;7.10;;;3.67;;
3949;SDS011;53057;50.988;6.314;2023-08-08T01:57:56;5.43;;;3.80;;
3949;SDS011;53057;50.988;6.314;2023-08-08T02:00:22;10.10;;;4.50;;
3949;SDS011;53057;50.988;6.314;2023-08-08T02:02:49;7.30;;;4.20;;
3949;SDS011;53057;50.988;6.314;2023-08-08T02:05:17;9.93;;;4.67;;
3949;SDS011;53057;50.988;6.314;2023-08-08T02:07:43;5.17;;;4.00;;
3949;SDS011;53057;50.988;6.314;2023-08-08T02:10:10;12.03;;;4.13;;
3949;SDS011;53057;50.988;6.314;2023-08-08T02:12:36;9.80;;;3.70;;
3949;SDS011;53057;50.988;6.314;2023-08-08T02:15:03;14.40;;;3.80;;
3949;SDS011;53057;50.988;6.314;2023-08-08T02:17:31;4.00;;;3.60;;
3949;SDS011;53057;50.988;6.314;2023-08-08T02:19:57;5.17;;;4.13;;
3949;SDS011;53057;50.988;6.314;2023-08-08T02:22:24;9.13;;;3.57;;
3949;SDS011;53057;50.988;6.314;2023-08-08T02:24:51;5.33;;;3.97;;
3949;SDS011;53057;50.988;6.314;2023-08-08T02:27:18;12.27;;;4.13;;
3949;SDS011;53057;50.988;6.314;2023-08-08T02:29:44;7.07;;;4.50;;
3949;SDS011;53057;50.988;6.314;2023-08-08T02:32:11;8.63;;;4.30;;
3949;SDS011;53057;50.988;6.314;2023-08-08T02:34:39;8.53;;;4.07;;
3949;SDS011;53057;50.988;6.314;2023-08-08T02:37:06;7.30;;;4.27;;
3949;SDS011;53057;50.988;6.314;2023-08-08T02:39:32;10.30;;;4.23;;
3949;SDS011;53057;50.988;6.314;2023-08-08T02:41:59;5.67;;;4.13;;
3949;SDS011;53057;50.988;6.314;2023-08-08T02:44:27;8.07;;;4.50;;
3949;SDS011;53057;50.988;6.314;2023-08-08T02:46:54;10.90;;;4.77;;
3949;SDS011;53057;50.988;6.314;2023-08-08T02:49:21;6.93;;;4.03;;
3949;SDS011;53057;50.988;6.314;2023-08-08T02:51:47;15.23;;;4.50;;
3949;SDS011;53057;50.988;6.314;2023-08-08T02:54:14;21.97;;;4.80;;
3949;SDS011;53057;50.988;6.314;2023-08-08T02:56:42;7.80;;;4.13;;
3949;SDS011;53057;50.988;6.314;2023-08-08T02:59:10;19.63;;;5.50;;
3949;SDS011;53057;50.988;6.314;2023-08-08T03:01:37;6.70;;;3.60;;
3949;SDS011;53057;50.988;6.314;2023-08-08T03:04:12;14.57;;;4.77;;
3949;SDS011;53057;50.988;6.314;2023-08-08T03:06:39;13.40;;;4.33;;
3949;SDS011;53057;50.988;6.314;2023-08-08T03:09:07;7.70;;;4.60;;
3949;SDS011;53057;50.988;6.314;2023-08-08T03:11:35;11.47;;;3.93;;
3949;SDS011;53057;50.988;6.314;2023-08-08T03:14:05;5.57;;;4.30;;
3949;SDS011;53057;50.988;6.314;2023-08-08T03:16:32;11.83;;;5.07;;
3949;SDS011;53057;50.988;6.314;2023-08-08T03:18:59;12.80;;;5.30;;
3949;SDS011;53057;50.988;6.314;2023-08-08T03:21:26;16.33;;;5.20;;
3949;SDS011;53057;50.988;6.314;2023-08-08T03:23:53;12.00;;;3.90;;
3949;SDS011;53057;50.988;6.314;2023-08-08T03:26:19;9.90;;;4.57;;
3949;SDS011;53057;50.988;6.314;2023-08-08T03:28:46;10.77;;;4.50;;
3949;SDS011;53057;50.988;6.314;2023-08-08T03:31:20;11.03;;;5.10;;
3949;SDS011;53057;50.988;6.314;2023-08-08T03:33:46;28.30;;;6.20;;
3949;SDS011;53057;50.988;6.314;2023-08-08T03:36:14;7.57;;;4.67;;
3949;SDS011;53057;50.988;6.314;2023-08-08T03:38:42;15.10;;;5.47;;
3949;SDS011;53057;50.988;6.314;2023-08-08T03:41:12;28.17;;;5.53;;
3949;SDS011;53057;50.988;6.314;2023-08-08T03:43:40;9.47;;;5.00;;
3949;SDS011;53057;50.988;6.314;2023-08-08T03:46:06;16.77;;;6.57;;
3949;SDS011;53057;50.988;6.314;2023-08-08T03:48:33;7.60;;;4.93;;
3949;SDS011;53057;50.988;6.314;2023-08-08T03:51:00;14.77;;;6.33;;
3949;SDS011;53057;50.988;6.314;2023-08-08T03:53:27;10.70;;;6.07;;
3949;SDS011;53057;50.988;6.314;2023-08-08T03:55:53;18.43;;;6.30;;
3949;SDS011;53057;50.988;6.314;2023-08-08T03:58:20;11.37;;;6.47;;
3949;SDS011;53057;50.988;6.314;2023-08-08T04:00:47;13.80;;;6.97;;
3949;SDS011;53057;50.988;6.314;2023-08-08T04:03:13;23.27;;;7.10;;
3949;SDS011;53057;50.988;6.314;2023-08-08T04:05:45;18.80;;;6.90;;
3949;SDS011;53057;50.988;6.314;2023-08-08T04:08:15;25.33;;;8.83;;
3949;SDS011;53057;50.988;6.314;2023-08-08T04:10:42;19.20;;;7.30;;
3949;SDS011;53057;50.988;6.314;2023-08-08T04:13:09;19.43;;;7.73;;
3949;SDS011;53057;50.988;6.314;2023-08-08T04:15:36;18.03;;;7.07;;
3949;SDS011;53057;50.988;6.314;2023-08-08T04:18:03;22.77;;;8.20;;
3949;SDS011;53057;50.988;6.314;2023-08-08T04:20:30;11.23;;;6.60;;
3949;SDS011;53057;50.988;6.314;2023-08-08T04:22:56;14.70;;;6.73;;
3949;SDS011;53057;50.988;6.314;2023-08-08T04:25:27;27.73;;;6.80;;
3949;SDS011;53057;50.988;6.314;2023-08-08T04:27:54;22.77;;;6.17;;
3949;SDS011;53057;50.988;6.314;2023-08-08T04:30:20;24.73;;;7.60;;
3949;SDS011;53057;50.988;6.314;2023-08-08T04:32:47;16.40;;;6.33;;
3949;SDS011;53057;50.988;6.314;2023-08-08T04:35:14;16.97;;;6.80;;
3949;SDS011;53057;50.988;6.314;2023-08-08T04:37:40;21.20;;;7.30;;
3949;SDS011;53057;50.988;6.314;2023-08-08T04:40:08;15.60;;;6.63;;
3949;SDS011;53057;50.988;6.314;2023-08-08T04:42:35;7.63;;;6.07;;
3949;SDS011;53057;50.988;6.314;2023-08-08T04:45:02;12.47;;;6.10;;
3949;SDS011;53057;50.988;6.314;2023-08-08T04:47:29;8.80;;;5.80;;
3949;SDS011;53057;50.988;6.314;2023-08-08T04:49:56;13.93;;;5.37;;
3949;SDS011;53057;50.988;6.314;2023-08-08T04:52:22;18.63;;;8.67;;
3949;SDS011;53057;50.988;6.314;2023-08-08T04:54:49;22.83;;;6.60;;
3949;SDS011;53057;50.988;6.314;2023-08-08T04:57:15;14.83;;;6.60;;
3949;SDS011;53057;50.988;6.314;2023-08-08T04:59:42;13.47;;;6.13;;
3949;SDS011;53057;50.988;6.314;2023-08-08T05:02:09;17.17;;;4.93;;
3949;SDS011;53057;50.988;6.314;2023-08-08T05:04:36;18.30;;;6.20;;
3949;SDS011;53057;50.988;6.314;2023-08-08T05:07:04;18.37;;;5.90;;
3949;SDS011;53057;50.988;6.314;2023-08-08T05:09:31;16.63;;;5.97;;
3949;SDS011;53057;50.988;6.314;2023-08-08T05:11:57;16.03;;;6.60;;
3949;SDS011;53057;50.988;6.314;2023-08-08T05:14:24;15.90;;;5.73;;
3949;SDS011;53057;50.988;6.314;2023-08-08T05:16:51;13.40;;;6.03;;
3949;SDS011;53057;50.988;6.314;2023-08-08T05:19:18;16.73;;;5.77;;
3949;SDS011;53057;50.988;6.314;2023-08-08T05:21:44;13.40;;;6.40;;
3949;SDS011;53057;50.988;6.314;2023-08-08T05:24:11;25.87;;;6.30;;
3949;SDS011;53057;50.988;6.314;2023-08-08T05:26:38;12.70;;;6.30;;
3949;SDS011;53057;50.988;6.314;2023-08-08T05:29:05;25.17;;;6.13;;
3949;SDS011;53057;50.988;6.314;2023-08-08T05:31:31;11.40;;;5.57;;
3949;SDS011;53057;50.988;6.314;2023-08-08T05:33:58;16.37;;;6.10;;
3949;SDS011;53057;50.988;6.314;2023-08-08T05:36:25;12.53;;;5.70;;
3949;SDS011;53057;50.988;6.314;2023-08-08T05:38:53;11.87;;;4.80;;
3949;SDS011;53057;50.988;6.314;2023-08-08T05:41:21;7.87;;;4.73;;
3949;SDS011;53057;50.988;6.314;2023-08-08T05:43:48;16.33;;;5.00;;
3949;SDS011;53057;50.988;6.314;2023-08-08T05:46:14;14.50;;;4.93;;
3949;SDS011;53057;50.988;6.314;2023-08-08T05:48:41;18.00;;;4.60;;
3949;SDS011;53057;50.988;6.314;2023-08-08T05:51:08;18.47;;;4.47;;
3949;SDS011;53057;50.988;6.314;2023-08-08T05:53:34;7.23;;;3.70;;
3949;SDS011;53057;50.988;6.314;2023-08-08T05:56:01;25.40;;;5.43;;
3949;SDS011;53057;50.988;6.314;2023-08-08T05:58:28;14.70;;;5.50;;
3949;SDS011;53057;50.988;6.314;2023-08-08T06:00:55;8.70;;;3.63;;
3949;SDS011;53057;50.988;6.314;2023-08-08T06:03:21;12.30;;;5.43;;
3949;SDS011;53057;50.988;6.314;2023-08-08T06:05:48;5.80;;;3.80;;
3949;SDS011;53057;50.988;6.314;2023-08-08T06:08:15;9.13;;;4.57;;
3949;SDS011;53057;50.988;6.314;2023-08-08T06:10:42;14.53;;;4.90;;
3949;SDS011;53057;50.988;6.314;2023-08-08T06:13:09;18.90;;;4.10;;
3949;SDS011;53057;50.988;6.314;2023-08-08T06:15:36;10.90;;;4.00;;
3949;SDS011;53057;50.988;6.314;2023-08-08T06:18:02;17.97;;;4.37;;
3949;SDS011;53057;50.988;6.314;2023-08-08T06:20:29;14.53;;;4.60;;
3949;SDS011;53057;50.988;6.314;2023-08-08T06:22:56;8.33;;;3.80;;
3949;SDS011;53057;50.988;6.314;2023-08-08T06:25:24;18.00;;;5.00;;
3949;SDS011;53057;50.988;6.314;2023-08-08T06:27:52;17.47;;;4.23;;
3949;SDS011;53057;50.988;6.314;2023-08-08T06:30:18;13.37;;;4.23;;
3949;SDS011;53057;50.988;6.314;2023-08-08T06:32:45;11.60;;;3.83;;
3949;SDS011;53057;50.988;6.314;2023-08-08T06:35:12;9.03;;;4.37;;
3949;SDS011;53057;50.988;6.314;2023-08-08T06:37:39;14.23;;;4.30;;
3949;SDS011;53057;50.988;6.314;2023-08-08T06:40:06;7.30;;;4.17;;
3949;SDS011;53057;50.988;6.314;2023-08-08T06:42:34;9.60;;;3.60;;
3949;SDS011;53057;50.988;6.314;2023-08-08T06:45:01;8.57;;;4.53;;
3949;SDS011;53057;50.988;6.314;2023-08-08T06:47:28;7.63;;;4.60;;
3949;SDS011;53057;50.988;6.314;2023-08-08T06:49:55;11.17;;;4.80;;
3949;SDS011;53057;50.988;6.314;2023-08-08T06:52:22;9.87;;;5.43;;
3949;SDS011;53057;50.988;6.314;2023-08-08T06:54:49;11.73;;;4.57;;
3949;SDS011;53057;50.988;6.314;2023-08-08T06:57:15;25.90;;;5.43;;
3949;SDS011;53057;50.988;6.314;2023-08-08T06:59:43;9.30;;;4.03;;
3949;SDS011;53057;50.988;6.314;2023-08-08T07:02:09;15.90;;;4.47;;
3949;SDS011;53057;50.988;6.314;2023-08-08T07:04:38;9.50;;;6.07;;
3949;SDS011;53057;50.988;6.314;2023-08-08T07:07:04;8.53;;;4.70;;
3949;SDS011;53057;50.988;6.314;2023-08-08T07:09:31;20.10;;;6.30;;
3949;SDS011;53057;50.988;6.314;2023-08-08T07:11:59;11.23;;;4.20;;
3949;SDS011;53057;50.988;6.314;2023-08-08T07:14:26;10.30;;;4.63;;
3949;SDS011;53057;50.988;6.314;2023-08-08T07:16:53;15.03;;;4.97;;
3949;SDS011;53057;50.988;6.314;2023-08-08T07:19:20;23.43;;;6.97;;
3949;SDS011;53057;50.988;6.314;2023-08-08T07:21:47;9.33;;;4.07;;
3949;SDS011;53057;50.988;6.314;2023-08-08T07:24:14;16.10;;;5.00;;
3949;SDS011;53057;50.988;6.314;2023-08-08T07:26:41;17.67;;;5.43;;
3949;SDS011;53057;50.988;6.314;2023-08-08T07:29:08;14.23;;;6.60;;
3949;SDS011;53057;50.988;6.314;2023-08-08T07:31:34;12.50;;;6.20;;
3949;SDS011;53057;50.988;6.314;2023-08-08T07:34:01;13.73;;;7.10;;
3949;SDS011;53057;50.988;6.314;2023-08-08T07:36:28;18.83;;;6.00;;
3949;SDS011;53057;50.988;6.314;2023-08-08T07:38:54;15.57;;;6.50;;
3949;SDS011;53057;50.988;6.314;2023-08-08T07:41:26;18.87;;;5.10;;
3949;SDS011;53057;50.988;6.314;2023-08-08T07:43:53;12.37;;;6.27;;
3949;SDS011;53057;50.988;6.314;2023-08-08T07:46:20;20.20;;;6.27;;
3949;SDS011;53057;50.988;6.314;2023-08-08T07:48:47;13.30;;;6.27;;
3949;SDS011;53057;50.988;6.314;2023-08-08T07:51:13;14.40;;;6.07;;
3949;SDS011;53057;50.988;6.314;2023-08-08T07:53:40;11.83;;;6.10;;
3949;SDS011;53057;50.988;6.314;2023-08-08T07:56:08;13.63;;;6.33;;
3949;SDS011;53057;50.988;6.314;2023-08-08T07:58:35;18.67;;;6.47;;
3949;SDS011;53057;50.988;6.314;2023-08-08T08:01:02;12.00;;;5.47;;
3949;SDS011;53057;50.988;6.314;2023-08-08T08:03:29;8.83;;;5.70;;
3949;SDS011;53057;50.988;6.314;2023-08-08T08:05:56;10.33;;;5.13;;
3949;SDS011;53057;50.988;6.314;2023-08-08T08:08:24;16.80;;;6.40;;
3949;SDS011;53057;50.988;6.314;2023-08-08T08:10:51;11.73;;;5.30;;
3949;SDS011;53057;50.988;6.314;2023-08-08T08:13:18;15.83;;;5.67;;
3949;SDS011;53057;50.988;6.314;2023-08-08T08:15:44;18.13;;;5.23;;
3949;SDS011;53057;50.988;6.314;2023-08-08T08:18:11;9.33;;;5.23;;
3949;SDS011;53057;50.988;6.314;2023-08-08T08:20:40;13.27;;;5.03;;
3949;SDS011;53057;50.988;6.314;2023-08-08T08:23:07;10.80;;;4.80;;
3949;SDS011;53057;50.988;6.314;2023-08-08T08:25:34;17.43;;;5.20;;
3949;SDS011;53057;50.988;6.314;2023-08-08T08:28:04;11.70;;;5.07;;
3949;SDS011;53057;50.988;6.314;2023-08-08T08:30:32;7.97;;;3.97;;
3949;SDS011;53057;50.988;6.314;2023-08-08T08:32:59;10.63;;;4.90;;
3949;SDS011;53057;50.988;6.314;2023-08-08T08:35:27;14.00;;;5.20;;
3949;SDS011;53057;50.988;6.314;2023-08-08T08:37:54;16.47;;;4.30;;
3949;SDS011;53057;50.988;6.314;2023-08-08T08:40:20;8.43;;;4.40;;
3949;SDS011;53057;50.988;6.314;2023-08-08T08:42:47;7.53;;;3.90;;
3949;SDS011;53057;50.988;6.314;2023-08-08T08:45:14;9.00;;;4.07;;
3949;SDS011;53057;50.988;6.314;2023-08-08T08:47:43;6.97;;;4.20;;
3949;SDS011;53057;50.988;6.314;2023-08-08T08:50:13;11.07;;;4.23;;
3949;SDS011;53057;50.988;6.314;2023-08-08T08:52:43;8.13;;;4.43;;
3949;SDS011;53057;50.988;6.314;2023-08-08T08:55:10;9.43;;;4.17;;
3949;SDS011;53057;50.988;6.314;2023-08-08T08:57:37;12.63;;;4.93;;
3949;SDS011;53057;50.988;6.314;2023-08-08T09:00:08;7.20;;;4.93;;
3949;SDS011;53057;50.988;6.314;2023-08-08T09:02:38;8.27;;;4.60;;
3949;SDS011;53057;50.988;6.314;2023-08-08T09:05:05;9.60;;;3.60;;
3949;SDS011;53057;50.988;6.314;2023-08-08T09:07:34;12.23;;;4.43;;
3949;SDS011;53057;50.988;6.314;2023-08-08T09:10:03;7.30;;;4.30;;
3949;SDS011;53057;50.988;6.314;2023-08-08T09:12:32;11.93;;;4.27;;
3949;SDS011;53057;50.988;6.314;2023-08-08T09:15:01;8.10;;;4.30;;
3949;SDS011;53057;50.988;6.314;2023-08-08T09:17:28;5.20;;;4.13;;
3949;SDS011;53057;50.988;6.314;2023-08-08T09:20:13;9.93;;;4.40;;
3949;SDS011;53057;50.988;6.314;2023-08-08T09:22:40;8.53;;;4.40;;
3949;SDS011;53057;50.988;6.314;2023-08-08T09:25:10;16.43;;;4.63;;
3949;SDS011;53057;50.988;6.314;2023-08-08T09:27:36;10.73;;;3.90;;
3949;SDS011;53057;50.988;6.314;2023-08-08T09:30:03;15.53;;;5.20;;
3949;SDS011;53057;50.988;6.314;2023-08-08T09:32:32;11.07;;;3.70;;
3949;SDS011;53057;50.988;6.314;2023-08-08T09:34:59;7.50;;;4.50;;
3949;SDS011;53057;50.988;6.314;2023-08-08T09:37:38;11.17;;;4.00;;
3949;SDS011;53057;50.988;6.314;2023-08-08T09:40:07;6.63;;;3.03;;
3949;SDS011;53057;50.988;6.314;2023-08-08T09:42:34;6.70;;;3.83;;
3949;SDS011;53057;50.988;6.314;2023-08-08T09:45:02;8.97;;;3.40;;
3949;SDS011;53057;50.988;6.314;2023-08-08T09:47:30;6.93;;;4.23;;
3949;SDS011;53057;50.988;6.314;2023-08-08T09:50:06;8.00;;;4.50;;
3949;SDS011;53057;50.988;6.314;2023-08-08T09:52:36;9.47;;;3.33;;
3949;SDS011;53057;50.988;6.314;2023-08-08T09:55:10;9.97;;;4.00;;
3949;SDS011;53057;50.988;6.314;2023-08-08T09:57:40;11.63;;;3.73;;
3949;SDS011;53057;50.988;6.314;2023-08-08T10:00:21;20.63;;;4.47;;
3949;SDS011;53057;50.988;6.314;2023-08-08T10:02:52;4.83;;;2.47;;
3949;SDS011;53057;50.988;6.314;2023-08-08T10:05:31;13.90;;;3.63;;
3949;SDS011;53057;50.988;6.314;2023-08-08T10:08:01;6.83;;;2.63;;
3949;SDS011;53057;50.988;6.314;2023-08-08T10:10:28;6.40;;;3.20;;
3949;SDS011;53057;50.988;6.314;2023-08-08T10:12:57;4.77;;;2.60;;
3949;SDS011;53057;50.988;6.314;2023-08-08T10:15:25;9.07;;;3.00;;
3949;SDS011;53057;50.988;6.314;2023-08-08T10:17:57;10.10;;;3.33;;
3949;SDS011;53057;50.988;6.314;2023-08-08T10:20:25;8.93;;;2.90;;
3949;SDS011;53057;50.988;6.314;2023-08-08T10:22:52;13.00;;;2.87;;
3949;SDS011;53057;50.988;6.314;2023-08-08T10:25:25;14.40;;;3.60;;
3949;SDS011;53057;50.988;6.314;2023-08-08T10:28:04;5.50;;;2.60;;
3949;SDS011;53057;50.988;6.314;2023-08-08T10:30:57;6.20;;;3.10;;
3949;SDS011;53057;50.988;6.314;2023-08-08T10:33:25;7.50;;;3.80;;
3949;SDS011;53057;50.988;6.314;2023-08-08T10:38:39;6.87;;;3.20;;
3949;SDS011;53057;50.988;6.314;2023-08-08T10:41:09;12.53;;;3.00;;
3949;SDS011;53057;50.988;6.314;2023-08-08T10:43:49;5.97;;;3.17;;
3949;SDS011;53057;50.988;6.314;2023-08-08T10:46:24;14.43;;;2.80;;
3949;SDS011;53057;50.988;6.314;2023-08-08T10:48:52;4.03;;;2.50;;
3949;SDS011;53057;50.988;6.314;2023-08-08T10:51:22;18.67;;;3.43;;
3949;SDS011;53057;50.988;6.314;2023-08-08T10:53:51;9.00;;;2.37;;
3949;SDS011;53057;50.988;6.314;2023-08-08T10:56:18;6.23;;;2.70;;
3949;SDS011;53057;50.988;6.314;2023-08-08T10:58:54;4.97;;;2.27;;
3949;SDS011;53057;50.988;6.314;2023-08-08T11:01:26;4.27;;;2.63;;
3949;SDS011;53057;50.988;6.314;2023-08-08T11:03:54;4.53;;;2.03;;
3949;SDS011;53057;50.988;6.314;2023-08-08T11:06:21;7.50;;;2.17;;
3949;SDS011;53057;50.988;6.314;2023-08-08T11:08:48;8.30;;;2.80;;
3949;SDS011;53057;50.988;6.314;2023-08-08T11:11:18;3.40;;;1.57;;
3949;SDS011;53057;50.988;6.314;2023-08-08T11:13:51;3.70;;;2.17;;
3949;SDS011;53057;50.988;6.314;2023-08-08T11:16:21;10.17;;;2.50;;
3949;SDS011;53057;50.988;6.314;2023-08-08T11:18:48;5.67;;;2.60;;
3949;SDS011;53057;50.988;6.314;2023-08-08T11:21:18;13.43;;;2.10;;
3949;SDS011;53057;50.988;6.314;2023-08-08T11:23:49;5.33;;;3.07;;
3949;SDS011;53057;50.988;6.314;2023-08-08T11:26:21;9.63;;;2.50;;
3949;SDS011;53057;50.988;6.314;2023-08-08T11:29:05;4.20;;;2.40;;
3949;SDS011;53057;50.988;6.314;2023-08-08T11:31:38;7.73;;;3.20;;
3949;SDS011;53057;50.988;6.314;2023-08-08T11:34:06;9.37;;;2.50;;
3949;SDS011;53057;50.988;6.314;2023-08-08T11:36:38;3.83;;;2.67;;
3949;SDS011;53057;50.988;6.314;2023-08-08T11:39:11;6.40;;;2.10;;
3949;SDS011;53057;50.988;6.314;2023-08-08T11:41:38;6.93;;;2.60;;
3949;SDS011;53057;50.988;6.314;2023-08-08T11:44:07;7.13;;;3.03;;
3949;SDS011;53057;50.988;6.314;2023-08-08T11:46:47;10.00;;;2.07;;
3949;SDS011;53057;50.988;6.314;2023-08-08T11:49:18;11.87;;;2.90;;
3949;SDS011;53057;50.988;6.314;2023-08-08T11:51:45;9.20;;;3.23;;
3949;SDS011;53057;50.988;6.314;2023-08-08T11:54:12;5.60;;;1.83;;
3949;SDS011;53057;50.988;6.314;2023-08-08T11:56:39;5.70;;;2.90;;
3949;SDS011;53057;50.988;6.314;2023-08-08T11:59:07;4.83;;;2.70;;
3949;SDS011;53057;50.988;6.314;2023-08-08T12:01:48;3.17;;;2.03;;
3949;SDS011;53057;50.988;6.314;2023-08-08T12:04:15;6.80;;;2.07;;
3949;SDS011;53057;50.988;6.314;2023-08-08T12:06:45;7.17;;;2.50;;
3949;SDS011;53057;50.988;6.314;2023-08-08T12:09:15;5.43;;;1.97;;
3949;SDS011;53057;50.988;6.314;2023-08-08T12:11:47;7.30;;;2.27;;
3949;SDS011;53057;50.988;6.314;2023-08-08T12:14:14;3.70;;;2.37;;
3949;SDS011;53057;50.988;6.314;2023-08-08T12:16:47;6.83;;;2.00;;
3949;SDS011;53057;50.988;6.314;2023-08-08T12:19:24;4.10;;;1.80;;
3949;SDS011;53057;50.988;6.314;2023-08-08T12:21:52;9.03;;;2.27;;
3949;SDS011;53057;50.988;6.314;2023-08-08T12:24:19;4.43;;;2.23;;
3949;SDS011;53057;50.988;6.314;2023-08-08T12:26:47;6.80;;;2.60;;
3949;SDS011;53057;50.988;6.314;2023-08-08T12:29:15;7.87;;;2.30;;
3949;SDS011;53057;50.988;6.314;2023-08-08T12:31:42;4.77;;;2.17;;
3949;SDS011;53057;50.988;6.314;2023-08-08T12:34:10;8.83;;;2.70;;
3949;SDS011;53057;50.988;6.314;2023-08-08T12:36:37;13.60;;;3.10;;
3949;SDS011;53057;50.988;6.314;2023-08-08T12:39:08;4.33;;;2.40;;
3949;SDS011;53057;50.988;6.314;2023-08-08T12:41:37;7.03;;;2.53;;
3949;SDS011;53057;50.988;6.314;2023-08-08T12:44:04;9.23;;;2.30;;
3949;SDS011;53057;50.988;6.314;2023-08-08T12:46:31;5.83;;;2.40;;
3949;SDS011;53057;50.988;6.314;2023-08-08T12:48:58;3.30;;;2.07;;
3949;SDS011;53057;50.988;6.314;2023-08-08T12:51:25;8.90;;;2.67;;
3949;SDS011;53057;50.988;6.314;2023-08-08T12:53:52;10.60;;;2.97;;
3949;SDS011;53057;50.988;6.314;2023-08-08T12:56:20;3.10;;;1.93;;
3949;SDS011;53057;50.988;6.314;2023-08-08T12:58:47;6.23;;;2.33;;
3949;SDS011;53057;50.988;6.314;2023-08-08T13:01:14;7.13;;;2.80;;
3949;SDS011;53057;50.988;6.314;2023-08-08T13:03:41;4.90;;;2.17;;
3949;SDS011;53057;50.988;6.314;2023-08-08T13:06:17;7.37;;;2.80;;
3949;SDS011;53057;50.988;6.314;2023-08-08T13:08:47;3.33;;;2.30;;
3949;SDS011;53057;50.988;6.314;2023-08-08T13:11:14;10.43;;;3.90;;
3949;SDS011;53057;50.988;6.314;2023-08-08T13:13:41;6.43;;;3.07;;
3949;SDS011;53057;50.988;6.314;2023-08-08T13:16:08;4.47;;;2.70;;
3949;SDS011;53057;50.988;6.314;2023-08-08T13:18:35;4.20;;;2.37;;
3949;SDS011;53057;50.988;6.314;2023-08-08T13:21:02;10.20;;;2.83;;
3949;SDS011;53057;50.988;6.314;2023-08-08T13:23:32;11.53;;;3.17;;
3949;SDS011;53057;50.988;6.314;2023-08-08T13:25:59;7.80;;;2.97;;
3949;SDS011;53057;50.988;6.314;2023-08-08T13:28:30;10.23;;;3.73;;
3949;SDS011;53057;50.988;6.314;2023-08-08T13:30:57;6.30;;;2.73;;
3949;SDS011;53057;50.988;6.314;2023-08-08T13:33:24;6.27;;;3.67;;
3949;SDS011;53057;50.988;6.314;2023-08-08T13:35:50;7.00;;;3.57;;
3949;SDS011;53057;50.988;6.314;2023-08-08T13:38:17;11.50;;;2.83;;
3949;SDS011;53057;50.988;6.314;2023-08-08T13:40:44;8.07;;;2.90;;
3949;SDS011;53057;50.988;6.314;2023-08-08T13:43:11;7.97;;;3.33;;
3949;SDS011;53057;50.988;6.314;2023-08-08T13:45:38;7.50;;;2.77;;
3949;SDS011;53057;50.988;6.314;2023-08-08T13:48:05;16.80;;;3.40;;
3949;SDS011;53057;50.988;6.314;2023-08-08T13:50:32;12.93;;;2.20;;
3949;SDS011;53057;50.988;6.314;2023-08-08T13:52:59;8.27;;;2.27;;
3949;SDS011;53057;50.988;6.314;2023-08-08T13:55:27;7.23;;;1.90;;
3949;SDS011;53057;50.988;6.314;2023-08-08T13:57:54;19.67;;;2.50;;
3949;SDS011;53057;50.988;6.314;2023-08-08T14:00:27;4.17;;;2.07;;
3949;SDS011;53057;50.988;6.314;2023-08-08T14:02:57;4.30;;;2.13;;
3949;SDS011;53057;50.988;6.314;2023-08-08T14:05:31;12.33;;;2.40;;
3949;SDS011;53057;50.988;6.314;2023-08-08T14:07:58;14.67;;;2.23;;
3949;SDS011;53057;50.988;6.314;2023-08-08T14:10:28;8.83;;;2.10;;
3949;SDS011;53057;50.988;6.314;2023-08-08T14:12:55;4.73;;;2.00;;
3949;SDS011;53057;50.988;6.314;2023-08-08T14:15:22;6.53;;;2.30;;
3949;SDS011;53057;50.988;6.314;2023-08-08T14:17:49;7.53;;;2.23;;
3949;SDS011;53057;50.988;6.314;2023-08-08T14:20:17;4.30;;;1.30;;
3949;SDS011;53057;50.988;6.314;2023-08-08T14:22:45;4.27;;;2.00;;
3949;SDS011;53057;50.988;6.314;2023-08-08T14:25:15;6.00;;;2.37;;
3949;SDS011;53057;50.988;6.314;2023-08-08T14:27:42;7.17;;;2.37;;
3949;SDS011;53057;50.988;6.314;2023-08-08T14:30:09;3.00;;;2.20;;
3949;SDS011;53057;50.988;6.314;2023-08-08T14:32:40;2.90;;;1.80;;
3949;SDS011;53057;50.988;6.314;2023-08-08T14:35:07;7.00;;;1.60;;
3949;SDS011;53057;50.988;6.314;2023-08-08T14:37:35;3.30;;;2.10;;
3949;SDS011;53057;50.988;6.314;2023-08-08T14:40:05;2.93;;;2.13;;
3949;SDS011;53057;50.988;6.314;2023-08-08T14:42:33;4.70;;;1.60;;
3949;SDS011;53057;50.988;6.314;2023-08-08T14:45:00;6.57;;;2.10;;
3949;SDS011;53057;50.988;6.314;2023-08-08T14:47:27;3.63;;;2.00;;
3949;SDS011;53057;50.988;6.314;2023-08-08T14:49:54;2.63;;;1.93;;
3949;SDS011;53057;50.988;6.314;2023-08-08T14:52:24;3.70;;;1.50;;
3949;SDS011;53057;50.988;6.314;2023-08-08T14:54:52;2.97;;;1.30;;
3949;SDS011;53057;50.988;6.314;2023-08-08T14:57:19;1.43;;;1.20;;
3949;SDS011;53057;50.988;6.314;2023-08-08T14:59:47;2.63;;;1.37;;
3949;SDS011;53057;50.988;6.314;2023-08-08T15:02:15;2.77;;;2.07;;
3949;SDS011;53057;50.988;6.314;2023-08-08T15:04:43;7.13;;;2.20;;
3949;SDS011;53057;50.988;6.314;2023-08-08T15:07:10;3.00;;;1.50;;
3949;SDS011;53057;50.988;6.314;2023-08-08T15:09:37;2.73;;;1.63;;